N811LM KMSL-KWWR
Flight info
| Callsign | N811LM |
|---|---|
| Flight time | 2h 46m |
| Altitude | 26000 |
| Route | KMSL DCT KWWR |
| Aircraft | PC12/L-SDFGRWY/S |
Departure
| Time | 2026-05-03 22:01 |
|---|---|
| Airport | Northwest Alabama Regional Airport (KMSL) |
Arrival
| Time | 2026-05-04 00:48 |
|---|---|
| Airport | West Woodward Airport (KWWR) |
| Time | Latitude | Longitude | Altitude | Speed | Heading |
|---|---|---|---|---|---|
| 2026-05-03 21:49 | 34.74510 | -87.61831 | 535 ft | 0 kts | 182° |
| 2026-05-03 21:57 | 34.74503 | -87.61829 | 535 ft | 3 kts | 134° |
| 2026-05-03 21:58 | 34.74538 | -87.61804 | 537 ft | 11 kts | 44° |
| 2026-05-03 21:58 | 34.74544 | -87.61690 | 538 ft | 18 kts | 90° |
| 2026-05-03 21:58 | 34.74533 | -87.61498 | 541 ft | 23 kts | 105° |
| 2026-05-03 21:58 | 34.74515 | -87.61292 | 541 ft | 27 kts | 95° |
| 2026-05-03 21:59 | 34.74493 | -87.61053 | 540 ft | 28 kts | 96° |
| 2026-05-03 21:59 | 34.74452 | -87.60822 | 539 ft | 26 kts | 113° |
| 2026-05-03 21:59 | 34.74377 | -87.60622 | 541 ft | 27 kts | 115° |
| 2026-05-03 21:59 | 34.74290 | -87.60381 | 542 ft | 31 kts | 114° |
| 2026-05-03 22:00 | 34.74204 | -87.60148 | 542 ft | 29 kts | 113° |
| 2026-05-03 22:00 | 34.74121 | -87.59927 | 540 ft | 27 kts | 116° |
| 2026-05-03 22:00 | 34.74063 | -87.59750 | 539 ft | 17 kts | 72° |
| 2026-05-03 22:00 | 34.74160 | -87.59724 | 539 ft | 17 kts | 310° |
| 2026-05-03 22:01 | 34.74282 | -87.60033 | 542 ft | 72 kts | 293° |
| 2026-05-03 22:01 | 34.74544 | -87.60770 | 666 ft | 107 kts | 292° |
| 2026-05-03 22:01 | 34.74866 | -87.61639 | 993 ft | 115 kts | 295° |
| 2026-05-03 22:01 | 34.75143 | -87.62610 | 1386 ft | 131 kts | 276° |
| 2026-05-03 22:02 | 34.75212 | -87.63761 | 1801 ft | 143 kts | 276° |
| 2026-05-03 22:02 | 34.75331 | -87.64985 | 2256 ft | 149 kts | 278° |
| 2026-05-03 22:02 | 34.75495 | -87.66232 | 2760 ft | 151 kts | 280° |
| 2026-05-03 22:02 | 34.75690 | -87.67505 | 3268 ft | 153 kts | 281° |
| 2026-05-03 22:03 | 34.75900 | -87.68758 | 3766 ft | 154 kts | 282° |
| 2026-05-03 22:03 | 34.76125 | -87.70027 | 4268 ft | 155 kts | 283° |
| 2026-05-03 22:03 | 34.76360 | -87.71312 | 4774 ft | 155 kts | 283° |
| 2026-05-03 22:03 | 34.76598 | -87.72583 | 5276 ft | 155 kts | 283° |
| 2026-05-03 22:04 | 34.76837 | -87.73846 | 5775 ft | 155 kts | 283° |
| 2026-05-03 22:04 | 34.77078 | -87.75106 | 6274 ft | 154 kts | 284° |
| 2026-05-03 22:04 | 34.77319 | -87.76366 | 6775 ft | 153 kts | 284° |
| 2026-05-03 22:04 | 34.77562 | -87.77626 | 7279 ft | 153 kts | 284° |
| 2026-05-03 22:05 | 34.77801 | -87.78871 | 7779 ft | 152 kts | 284° |
| 2026-05-03 22:05 | 34.78039 | -87.80106 | 8278 ft | 151 kts | 284° |
| 2026-05-03 22:05 | 34.78274 | -87.81325 | 8775 ft | 149 kts | 284° |
| 2026-05-03 22:05 | 34.78507 | -87.82532 | 9270 ft | 148 kts | 284° |
| 2026-05-03 22:06 | 34.78739 | -87.83740 | 9770 ft | 147 kts | 284° |
| 2026-05-03 22:06 | 34.78969 | -87.84930 | 10269 ft | 145 kts | 284° |
| 2026-05-03 22:06 | 34.79198 | -87.86122 | 10772 ft | 144 kts | 284° |
| 2026-05-03 22:06 | 34.79424 | -87.87292 | 11272 ft | 142 kts | 284° |
| 2026-05-03 22:07 | 34.79644 | -87.88435 | 11765 ft | 140 kts | 284° |
| 2026-05-03 22:07 | 34.79865 | -87.89587 | 12268 ft | 139 kts | 284° |
| 2026-05-03 22:07 | 34.80081 | -87.90709 | 12764 ft | 137 kts | 284° |
| 2026-05-03 22:07 | 34.80295 | -87.91823 | 13262 ft | 135 kts | 285° |
| 2026-05-03 22:08 | 34.80502 | -87.92904 | 13752 ft | 133 kts | 285° |
| 2026-05-03 22:08 | 34.80709 | -87.93984 | 14249 ft | 131 kts | 285° |
| 2026-05-03 22:08 | 34.80914 | -87.95052 | 14748 ft | 129 kts | 285° |
| 2026-05-03 22:08 | 34.81113 | -87.96091 | 15240 ft | 127 kts | 285° |
| 2026-05-03 22:09 | 34.81309 | -87.97111 | 15733 ft | 125 kts | 285° |
| 2026-05-03 22:09 | 34.81503 | -87.98125 | 16232 ft | 122 kts | 285° |
| 2026-05-03 22:09 | 34.81692 | -87.99107 | 16726 ft | 119 kts | 285° |
| 2026-05-03 22:10 | 34.82055 | -88.00995 | 17713 ft | 113 kts | 286° |
| 2026-05-03 22:10 | 34.82230 | -88.01899 | 18207 ft | 109 kts | 286° |
| 2026-05-03 22:10 | 34.82397 | -88.02756 | 18693 ft | 105 kts | 286° |
| 2026-05-03 22:10 | 34.82562 | -88.03597 | 19188 ft | 100 kts | 286° |
| 2026-05-03 22:11 | 34.82717 | -88.04380 | 19674 ft | 94 kts | 287° |
| 2026-05-03 22:11 | 34.82863 | -88.05117 | 20161 ft | 88 kts | 287° |
| 2026-05-03 22:11 | 34.82997 | -88.05780 | 20633 ft | 80 kts | 288° |
| 2026-05-03 22:11 | 34.83134 | -88.06445 | 20951 ft | 86 kts | 288° |
| 2026-05-03 22:12 | 34.83285 | -88.07186 | 21214 ft | 96 kts | 287° |
| 2026-05-03 22:12 | 34.83448 | -88.08031 | 21480 ft | 107 kts | 286° |
| 2026-05-03 22:12 | 34.83622 | -88.08964 | 21744 ft | 117 kts | 285° |
| 2026-05-03 22:12 | 34.83805 | -88.09965 | 22001 ft | 127 kts | 285° |
| 2026-05-03 22:13 | 34.84003 | -88.11045 | 22257 ft | 135 kts | 285° |
| 2026-05-03 22:13 | 34.84215 | -88.12194 | 22512 ft | 142 kts | 285° |
| 2026-05-03 22:13 | 34.84442 | -88.13405 | 22766 ft | 149 kts | 285° |
| 2026-05-03 22:13 | 34.84677 | -88.14653 | 23016 ft | 154 kts | 285° |
| 2026-05-03 22:14 | 34.84919 | -88.15923 | 23263 ft | 159 kts | 285° |
| 2026-05-03 22:14 | 34.85170 | -88.17260 | 23513 ft | 162 kts | 285° |
| 2026-05-03 22:14 | 34.85424 | -88.18601 | 23758 ft | 165 kts | 285° |
| 2026-05-03 22:14 | 34.85686 | -88.19990 | 24009 ft | 168 kts | 284° |
| 2026-05-03 22:15 | 34.85944 | -88.21350 | 24246 ft | 170 kts | 284° |
| 2026-05-03 22:15 | 34.86216 | -88.22778 | 24493 ft | 171 kts | 284° |
| 2026-05-03 22:15 | 34.86481 | -88.24172 | 24734 ft | 173 kts | 285° |
| 2026-05-03 22:15 | 34.86755 | -88.25626 | 24982 ft | 174 kts | 284° |
| 2026-05-03 22:16 | 34.87023 | -88.27042 | 25222 ft | 174 kts | 285° |
| 2026-05-03 22:16 | 34.87295 | -88.28490 | 25463 ft | 175 kts | 284° |
| 2026-05-03 22:16 | 34.87563 | -88.29916 | 25701 ft | 175 kts | 285° |
| 2026-05-03 22:16 | 34.87840 | -88.31383 | 25944 ft | 175 kts | 285° |
| 2026-05-03 22:17 | 34.88113 | -88.32819 | 26085 ft | 180 kts | 285° |
| 2026-05-03 22:17 | 34.88409 | -88.34366 | 26105 ft | 189 kts | 284° |
| 2026-05-03 22:17 | 34.88707 | -88.35945 | 26105 ft | 197 kts | 284° |
| 2026-05-03 22:17 | 34.89023 | -88.37610 | 26104 ft | 203 kts | 284° |
| 2026-05-03 22:18 | 34.89343 | -88.39304 | 26104 ft | 207 kts | 284° |
| 2026-05-03 22:18 | 34.89664 | -88.41023 | 26104 ft | 211 kts | 284° |
| 2026-05-03 22:18 | 34.89988 | -88.42753 | 26101 ft | 214 kts | 284° |
| 2026-05-03 22:18 | 34.90329 | -88.44556 | 26100 ft | 216 kts | 284° |
| 2026-05-03 22:19 | 34.90665 | -88.46355 | 26100 ft | 217 kts | 284° |
| 2026-05-03 22:19 | 34.91002 | -88.48150 | 26099 ft | 218 kts | 284° |
| 2026-05-03 22:19 | 34.91335 | -88.49929 | 26099 ft | 219 kts | 284° |
| 2026-05-03 22:19 | 34.91679 | -88.51770 | 26102 ft | 220 kts | 284° |
| 2026-05-03 22:20 | 34.92015 | -88.53572 | 26103 ft | 220 kts | 284° |
| 2026-05-03 22:20 | 34.92352 | -88.55386 | 26100 ft | 220 kts | 284° |
| 2026-05-03 22:20 | 34.92692 | -88.57210 | 26101 ft | 220 kts | 284° |
| 2026-05-03 22:20 | 34.93038 | -88.59040 | 26100 ft | 220 kts | 284° |
| 2026-05-03 22:21 | 34.93369 | -88.60828 | 26101 ft | 220 kts | 284° |
| 2026-05-03 22:21 | 34.93709 | -88.62670 | 26099 ft | 220 kts | 284° |
| 2026-05-03 22:21 | 34.94049 | -88.64496 | 26101 ft | 220 kts | 284° |
| 2026-05-03 22:21 | 34.94383 | -88.66286 | 26110 ft | 219 kts | 283° |
| 2026-05-03 22:22 | 34.94722 | -88.68104 | 26113 ft | 220 kts | 283° |
| 2026-05-03 22:22 | 34.95061 | -88.69942 | 26111 ft | 220 kts | 283° |
| 2026-05-03 22:22 | 34.95396 | -88.71757 | 26111 ft | 220 kts | 284° |
| 2026-05-03 22:22 | 34.95734 | -88.73579 | 26109 ft | 220 kts | 283° |
| 2026-05-03 22:23 | 34.96067 | -88.75371 | 26110 ft | 220 kts | 284° |
| 2026-05-03 22:23 | 34.96407 | -88.77220 | 26111 ft | 220 kts | 283° |
| 2026-05-03 22:23 | 34.96740 | -88.79028 | 26111 ft | 220 kts | 283° |
| 2026-05-03 22:23 | 34.97082 | -88.80872 | 26109 ft | 220 kts | 283° |
| 2026-05-03 22:24 | 34.97419 | -88.82694 | 26109 ft | 220 kts | 283° |
| 2026-05-03 22:24 | 34.97747 | -88.84489 | 26108 ft | 219 kts | 283° |
| 2026-05-03 22:24 | 34.98085 | -88.86324 | 26107 ft | 219 kts | 283° |
| 2026-05-03 22:24 | 34.98417 | -88.88140 | 26104 ft | 219 kts | 283° |
| 2026-05-03 22:25 | 34.98744 | -88.89914 | 26103 ft | 219 kts | 283° |
| 2026-05-03 22:25 | 34.99082 | -88.91747 | 26103 ft | 219 kts | 283° |
| 2026-05-03 22:25 | 34.99414 | -88.93562 | 26101 ft | 219 kts | 283° |
| 2026-05-03 22:25 | 34.99744 | -88.95370 | 26100 ft | 219 kts | 283° |
| 2026-05-03 22:26 | 35.00076 | -88.97186 | 26098 ft | 218 kts | 283° |
| 2026-05-03 22:26 | 35.00402 | -88.98980 | 26097 ft | 218 kts | 283° |
| 2026-05-03 22:26 | 35.00735 | -89.00796 | 26095 ft | 218 kts | 283° |
| 2026-05-03 22:26 | 35.01064 | -89.02595 | 26093 ft | 218 kts | 283° |
| 2026-05-03 22:27 | 35.01395 | -89.04404 | 26092 ft | 218 kts | 283° |
| 2026-05-03 22:27 | 35.01722 | -89.06198 | 26091 ft | 218 kts | 283° |
| 2026-05-03 22:27 | 35.02049 | -89.07991 | 26090 ft | 217 kts | 283° |
| 2026-05-03 22:27 | 35.02379 | -89.09813 | 26089 ft | 217 kts | 283° |
| 2026-05-03 22:28 | 35.02703 | -89.11600 | 26088 ft | 217 kts | 283° |
| 2026-05-03 22:28 | 35.03030 | -89.13412 | 26088 ft | 217 kts | 283° |
| 2026-05-03 22:28 | 35.03356 | -89.15193 | 26087 ft | 217 kts | 283° |
| 2026-05-03 22:28 | 35.03681 | -89.16988 | 26087 ft | 216 kts | 283° |
| 2026-05-03 22:29 | 35.04005 | -89.18786 | 26086 ft | 216 kts | 283° |
| 2026-05-03 22:29 | 35.04327 | -89.20564 | 26086 ft | 216 kts | 283° |
| 2026-05-03 22:29 | 35.04650 | -89.22357 | 26086 ft | 216 kts | 283° |
| 2026-05-03 22:29 | 35.04973 | -89.24135 | 26086 ft | 216 kts | 283° |
| 2026-05-03 22:30 | 35.05295 | -89.25920 | 26086 ft | 215 kts | 282° |
| 2026-05-03 22:30 | 35.05616 | -89.27710 | 26085 ft | 215 kts | 282° |
| 2026-05-03 22:30 | 35.05936 | -89.29491 | 26085 ft | 215 kts | 283° |
| 2026-05-03 22:30 | 35.06256 | -89.31281 | 26085 ft | 215 kts | 283° |
| 2026-05-03 22:31 | 35.06575 | -89.33060 | 26084 ft | 215 kts | 283° |
| 2026-05-03 22:31 | 35.06897 | -89.34846 | 26084 ft | 215 kts | 283° |
| 2026-05-03 22:31 | 35.07213 | -89.36603 | 26084 ft | 215 kts | 283° |
| 2026-05-03 22:31 | 35.07534 | -89.38399 | 26084 ft | 215 kts | 283° |
| 2026-05-03 22:32 | 35.07852 | -89.40185 | 26084 ft | 215 kts | 283° |
| 2026-05-03 22:32 | 35.08171 | -89.41976 | 26083 ft | 215 kts | 283° |
| 2026-05-03 22:32 | 35.08491 | -89.43763 | 26083 ft | 215 kts | 283° |
| 2026-05-03 22:32 | 35.08809 | -89.45532 | 26083 ft | 215 kts | 283° |
| 2026-05-03 22:33 | 35.09124 | -89.47289 | 26083 ft | 215 kts | 283° |
| 2026-05-03 22:33 | 35.09448 | -89.49108 | 26082 ft | 215 kts | 283° |
| 2026-05-03 22:33 | 35.09766 | -89.50891 | 26082 ft | 214 kts | 283° |
| 2026-05-03 22:33 | 35.10082 | -89.52660 | 26083 ft | 214 kts | 283° |
| 2026-05-03 22:34 | 35.10395 | -89.54427 | 26085 ft | 215 kts | 283° |
| 2026-05-03 22:34 | 35.10712 | -89.56214 | 26085 ft | 215 kts | 283° |
| 2026-05-03 22:34 | 35.11031 | -89.58012 | 26085 ft | 215 kts | 283° |
| 2026-05-03 22:34 | 35.11343 | -89.59781 | 26084 ft | 215 kts | 283° |
| 2026-05-03 22:35 | 35.11663 | -89.61578 | 26083 ft | 215 kts | 283° |
| 2026-05-03 22:35 | 35.11979 | -89.63368 | 26083 ft | 215 kts | 283° |
| 2026-05-03 22:35 | 35.12288 | -89.65113 | 26082 ft | 215 kts | 282° |
| 2026-05-03 22:35 | 35.12608 | -89.66930 | 26093 ft | 215 kts | 282° |
| 2026-05-03 22:36 | 35.12925 | -89.68731 | 26093 ft | 216 kts | 282° |
| 2026-05-03 22:36 | 35.13244 | -89.70534 | 26092 ft | 216 kts | 282° |
| 2026-05-03 22:36 | 35.13559 | -89.72320 | 26091 ft | 217 kts | 282° |
| 2026-05-03 22:36 | 35.13879 | -89.74141 | 26089 ft | 217 kts | 282° |
| 2026-05-03 22:37 | 35.14193 | -89.75921 | 26088 ft | 217 kts | 282° |
| 2026-05-03 22:37 | 35.14516 | -89.77753 | 26087 ft | 217 kts | 282° |
| 2026-05-03 22:37 | 35.14830 | -89.79552 | 26087 ft | 217 kts | 282° |
| 2026-05-03 22:37 | 35.15146 | -89.81352 | 26087 ft | 217 kts | 282° |
| 2026-05-03 22:38 | 35.15464 | -89.83171 | 26087 ft | 217 kts | 282° |
| 2026-05-03 22:38 | 35.15779 | -89.84963 | 26087 ft | 217 kts | 282° |
| 2026-05-03 22:38 | 35.16096 | -89.86776 | 26087 ft | 217 kts | 282° |
| 2026-05-03 22:38 | 35.16407 | -89.88564 | 26088 ft | 217 kts | 282° |
| 2026-05-03 22:39 | 35.16719 | -89.90352 | 26088 ft | 217 kts | 282° |
| 2026-05-03 22:39 | 35.17038 | -89.92182 | 26089 ft | 217 kts | 282° |
| 2026-05-03 22:39 | 35.17350 | -89.93971 | 26089 ft | 217 kts | 282° |
| 2026-05-03 22:39 | 35.17668 | -89.95790 | 26090 ft | 217 kts | 282° |
| 2026-05-03 22:40 | 35.17981 | -89.97586 | 26090 ft | 217 kts | 282° |
| 2026-05-03 22:40 | 35.18296 | -89.99406 | 26091 ft | 217 kts | 282° |
| 2026-05-03 22:40 | 35.18608 | -90.01207 | 26092 ft | 217 kts | 282° |
| 2026-05-03 22:40 | 35.18920 | -90.03012 | 26090 ft | 217 kts | 282° |
| 2026-05-03 22:41 | 35.19230 | -90.04795 | 26089 ft | 217 kts | 282° |
| 2026-05-03 22:41 | 35.19545 | -90.06611 | 26087 ft | 217 kts | 282° |
| 2026-05-03 22:41 | 35.19854 | -90.08397 | 26085 ft | 217 kts | 282° |
| 2026-05-03 22:41 | 35.20168 | -90.10219 | 26084 ft | 217 kts | 282° |
| 2026-05-03 22:42 | 35.20481 | -90.12028 | 26082 ft | 217 kts | 282° |
| 2026-05-03 22:42 | 35.20790 | -90.13819 | 26080 ft | 217 kts | 282° |
| 2026-05-03 22:42 | 35.21099 | -90.15623 | 26079 ft | 217 kts | 282° |
| 2026-05-03 22:42 | 35.21414 | -90.17442 | 26077 ft | 217 kts | 282° |
| 2026-05-03 22:43 | 35.21719 | -90.19215 | 26075 ft | 216 kts | 282° |
| 2026-05-03 22:43 | 35.22031 | -90.21038 | 26074 ft | 216 kts | 282° |
| 2026-05-03 22:43 | 35.22340 | -90.22835 | 26072 ft | 216 kts | 282° |
| 2026-05-03 22:43 | 35.22648 | -90.24633 | 26071 ft | 216 kts | 282° |
| 2026-05-03 22:44 | 35.22960 | -90.26454 | 26070 ft | 216 kts | 282° |
| 2026-05-03 22:44 | 35.23266 | -90.28245 | 26070 ft | 216 kts | 282° |
| 2026-05-03 22:44 | 35.23574 | -90.30047 | 26070 ft | 216 kts | 282° |
| 2026-05-03 22:44 | 35.23886 | -90.31860 | 26070 ft | 216 kts | 282° |
| 2026-05-03 22:45 | 35.24191 | -90.33646 | 26069 ft | 216 kts | 282° |
| 2026-05-03 22:45 | 35.24496 | -90.35435 | 26069 ft | 216 kts | 282° |
| 2026-05-03 22:45 | 35.24805 | -90.37251 | 26069 ft | 216 kts | 282° |
| 2026-05-03 22:45 | 35.25110 | -90.39048 | 26069 ft | 216 kts | 282° |
| 2026-05-03 22:46 | 35.25418 | -90.40858 | 26068 ft | 216 kts | 282° |
| 2026-05-03 22:46 | 35.25723 | -90.42654 | 26068 ft | 216 kts | 282° |
| 2026-05-03 22:46 | 35.26023 | -90.44430 | 26068 ft | 216 kts | 282° |
| 2026-05-03 22:46 | 35.26333 | -90.46255 | 26068 ft | 216 kts | 282° |
| 2026-05-03 22:47 | 35.26635 | -90.48037 | 26068 ft | 216 kts | 282° |
| 2026-05-03 22:47 | 35.26940 | -90.49835 | 26066 ft | 216 kts | 282° |
| 2026-05-03 22:47 | 35.27243 | -90.51632 | 26065 ft | 216 kts | 282° |
| 2026-05-03 22:47 | 35.27547 | -90.53428 | 26063 ft | 216 kts | 282° |
| 2026-05-03 22:48 | 35.27850 | -90.55228 | 26062 ft | 216 kts | 282° |
| 2026-05-03 22:48 | 35.28153 | -90.57027 | 26060 ft | 216 kts | 282° |
| 2026-05-03 22:48 | 35.28451 | -90.58802 | 26059 ft | 215 kts | 282° |
| 2026-05-03 22:48 | 35.28758 | -90.60621 | 26057 ft | 215 kts | 282° |
| 2026-05-03 22:49 | 35.29060 | -90.62409 | 26055 ft | 215 kts | 282° |
| 2026-05-03 22:49 | 35.29363 | -90.64218 | 26054 ft | 215 kts | 282° |
| 2026-05-03 22:49 | 35.29659 | -90.65984 | 26061 ft | 215 kts | 282° |
| 2026-05-03 22:49 | 35.29961 | -90.67798 | 26063 ft | 216 kts | 282° |
| 2026-05-03 22:50 | 35.30263 | -90.69607 | 26062 ft | 216 kts | 282° |
| 2026-05-03 22:50 | 35.30568 | -90.71418 | 26060 ft | 216 kts | 282° |
| 2026-05-03 22:50 | 35.30867 | -90.73196 | 26059 ft | 216 kts | 282° |
| 2026-05-03 22:50 | 35.31170 | -90.75015 | 26058 ft | 216 kts | 282° |
| 2026-05-03 22:51 | 35.31472 | -90.76833 | 26058 ft | 216 kts | 282° |
| 2026-05-03 22:51 | 35.31775 | -90.78648 | 26058 ft | 216 kts | 282° |
| 2026-05-03 22:51 | 35.32077 | -90.80448 | 26058 ft | 216 kts | 282° |
| 2026-05-03 22:51 | 35.32375 | -90.82242 | 26057 ft | 216 kts | 282° |
| 2026-05-03 22:52 | 35.32675 | -90.84059 | 26057 ft | 216 kts | 282° |
| 2026-05-03 22:52 | 35.32974 | -90.85860 | 26057 ft | 216 kts | 282° |
| 2026-05-03 22:52 | 35.33272 | -90.87653 | 26057 ft | 216 kts | 282° |
| 2026-05-03 22:52 | 35.33575 | -90.89482 | 26056 ft | 216 kts | 282° |
| 2026-05-03 22:53 | 35.33870 | -90.91267 | 26056 ft | 216 kts | 282° |
| 2026-05-03 22:53 | 35.34168 | -90.93071 | 26056 ft | 216 kts | 282° |
| 2026-05-03 22:53 | 35.34464 | -90.94867 | 26056 ft | 216 kts | 282° |
| 2026-05-03 22:53 | 35.34765 | -90.96680 | 26055 ft | 216 kts | 282° |
| 2026-05-03 22:54 | 35.35064 | -90.98498 | 26055 ft | 216 kts | 282° |
| 2026-05-03 22:54 | 35.35358 | -91.00297 | 26055 ft | 216 kts | 282° |
| 2026-05-03 22:54 | 35.35654 | -91.02093 | 26055 ft | 215 kts | 282° |
| 2026-05-03 22:54 | 35.35951 | -91.03902 | 26054 ft | 215 kts | 282° |
| 2026-05-03 22:55 | 35.36240 | -91.05671 | 26054 ft | 215 kts | 282° |
| 2026-05-03 22:55 | 35.36538 | -91.07489 | 26054 ft | 215 kts | 283° |
| 2026-05-03 22:55 | 35.36831 | -91.09275 | 26054 ft | 214 kts | 283° |
| 2026-05-03 22:55 | 35.37122 | -91.11050 | 26054 ft | 214 kts | 283° |
| 2026-05-03 22:56 | 35.37417 | -91.12852 | 26053 ft | 213 kts | 283° |
| 2026-05-03 22:56 | 35.37707 | -91.14620 | 26053 ft | 213 kts | 283° |
| 2026-05-03 22:56 | 35.37993 | -91.16385 | 26053 ft | 213 kts | 283° |
| 2026-05-03 22:56 | 35.38284 | -91.18168 | 26053 ft | 212 kts | 283° |
| 2026-05-03 22:57 | 35.38575 | -91.19940 | 26052 ft | 212 kts | 283° |
| 2026-05-03 22:57 | 35.38863 | -91.21717 | 26052 ft | 212 kts | 283° |
| 2026-05-03 22:57 | 35.39153 | -91.23494 | 26053 ft | 211 kts | 283° |
| 2026-05-03 22:57 | 35.39439 | -91.25242 | 26053 ft | 211 kts | 283° |
| 2026-05-03 22:58 | 35.39726 | -91.27004 | 26053 ft | 211 kts | 283° |
| 2026-05-03 22:58 | 35.40011 | -91.28765 | 26053 ft | 211 kts | 283° |
| 2026-05-03 22:58 | 35.40296 | -91.30524 | 26054 ft | 211 kts | 283° |
| 2026-05-03 22:58 | 35.40583 | -91.32296 | 26054 ft | 211 kts | 283° |
| 2026-05-03 22:59 | 35.40868 | -91.34059 | 26054 ft | 211 kts | 283° |
| 2026-05-03 22:59 | 35.41153 | -91.35816 | 26054 ft | 211 kts | 283° |
| 2026-05-03 22:59 | 35.41440 | -91.37595 | 26054 ft | 211 kts | 283° |
| 2026-05-03 22:59 | 35.41721 | -91.39343 | 26054 ft | 211 kts | 283° |
| 2026-05-03 23:00 | 35.42004 | -91.41089 | 26054 ft | 210 kts | 283° |
| 2026-05-03 23:00 | 35.42288 | -91.42849 | 26054 ft | 210 kts | 283° |
| 2026-05-03 23:00 | 35.42570 | -91.44614 | 26054 ft | 210 kts | 283° |
| 2026-05-03 23:00 | 35.42853 | -91.46381 | 26054 ft | 210 kts | 283° |
| 2026-05-03 23:01 | 35.43135 | -91.48142 | 26054 ft | 210 kts | 283° |
| 2026-05-03 23:01 | 35.43418 | -91.49905 | 26053 ft | 210 kts | 283° |
| 2026-05-03 23:01 | 35.43696 | -91.51642 | 26053 ft | 210 kts | 283° |
| 2026-05-03 23:01 | 35.43981 | -91.53414 | 26052 ft | 210 kts | 283° |
| 2026-05-03 23:02 | 35.44261 | -91.55175 | 26052 ft | 210 kts | 283° |
| 2026-05-03 23:02 | 35.44544 | -91.56934 | 26051 ft | 210 kts | 283° |
| 2026-05-03 23:02 | 35.44821 | -91.58668 | 26051 ft | 210 kts | 283° |
| 2026-05-03 23:02 | 35.45099 | -91.60424 | 26051 ft | 210 kts | 283° |
| 2026-05-03 23:03 | 35.45381 | -91.62196 | 26050 ft | 210 kts | 283° |
| 2026-05-03 23:03 | 35.45658 | -91.63947 | 26050 ft | 210 kts | 283° |
| 2026-05-03 23:03 | 35.45932 | -91.65672 | 26057 ft | 210 kts | 283° |
| 2026-05-03 23:03 | 35.46217 | -91.67461 | 26062 ft | 210 kts | 283° |
| 2026-05-03 23:04 | 35.46496 | -91.69218 | 26062 ft | 211 kts | 283° |
| 2026-05-03 23:04 | 35.46777 | -91.70998 | 26062 ft | 211 kts | 283° |
| 2026-05-03 23:04 | 35.47052 | -91.72737 | 26061 ft | 211 kts | 283° |
| 2026-05-03 23:04 | 35.47336 | -91.74523 | 26061 ft | 212 kts | 283° |
| 2026-05-03 23:05 | 35.47618 | -91.76302 | 26060 ft | 212 kts | 283° |
| 2026-05-03 23:05 | 35.47896 | -91.78074 | 26060 ft | 212 kts | 283° |
| 2026-05-03 23:05 | 35.48172 | -91.79829 | 26060 ft | 212 kts | 283° |
| 2026-05-03 23:05 | 35.48457 | -91.81629 | 26059 ft | 212 kts | 283° |
| 2026-05-03 23:06 | 35.48735 | -91.83393 | 26059 ft | 212 kts | 283° |
| 2026-05-03 23:06 | 35.49012 | -91.85159 | 26058 ft | 212 kts | 283° |
| 2026-05-03 23:06 | 35.49296 | -91.86959 | 26058 ft | 212 kts | 283° |
| 2026-05-03 23:06 | 35.49570 | -91.88709 | 26057 ft | 212 kts | 283° |
| 2026-05-03 23:07 | 35.49848 | -91.90488 | 26057 ft | 212 kts | 283° |
| 2026-05-03 23:07 | 35.50127 | -91.92280 | 26056 ft | 212 kts | 283° |
| 2026-05-03 23:07 | 35.50400 | -91.94029 | 26056 ft | 212 kts | 283° |
| 2026-05-03 23:07 | 35.50680 | -91.95812 | 26056 ft | 212 kts | 283° |
| 2026-05-03 23:08 | 35.50959 | -91.97591 | 26057 ft | 212 kts | 283° |
| 2026-05-03 23:08 | 35.51234 | -91.99361 | 26057 ft | 212 kts | 283° |
| 2026-05-03 23:08 | 35.51511 | -92.01140 | 26057 ft | 211 kts | 283° |
| 2026-05-03 23:08 | 35.51786 | -92.02905 | 26058 ft | 211 kts | 283° |
| 2026-05-03 23:09 | 35.52060 | -92.04669 | 26058 ft | 211 kts | 283° |
| 2026-05-03 23:09 | 35.52334 | -92.06439 | 26058 ft | 211 kts | 283° |
| 2026-05-03 23:09 | 35.52611 | -92.08218 | 26059 ft | 211 kts | 283° |
| 2026-05-03 23:09 | 35.52885 | -92.09985 | 26059 ft | 211 kts | 283° |
| 2026-05-03 23:10 | 35.53159 | -92.11751 | 26059 ft | 211 kts | 283° |
| 2026-05-03 23:10 | 35.53433 | -92.13517 | 26059 ft | 211 kts | 283° |
| 2026-05-03 23:10 | 35.53706 | -92.15295 | 26060 ft | 211 kts | 283° |
| 2026-05-03 23:10 | 35.53980 | -92.17073 | 26059 ft | 211 kts | 283° |
| 2026-05-03 23:11 | 35.54253 | -92.18845 | 26056 ft | 211 kts | 283° |
| 2026-05-03 23:11 | 35.54526 | -92.20618 | 26052 ft | 211 kts | 283° |
| 2026-05-03 23:11 | 35.54796 | -92.22364 | 26049 ft | 211 kts | 283° |
| 2026-05-03 23:11 | 35.55072 | -92.24155 | 26045 ft | 211 kts | 283° |
| 2026-05-03 23:12 | 35.55345 | -92.25935 | 26041 ft | 211 kts | 283° |
| 2026-05-03 23:12 | 35.55613 | -92.27692 | 26037 ft | 211 kts | 283° |
| 2026-05-03 23:12 | 35.55881 | -92.29433 | 26033 ft | 211 kts | 283° |
| 2026-05-03 23:12 | 35.56156 | -92.31230 | 26030 ft | 211 kts | 283° |
| 2026-05-03 23:13 | 35.56428 | -92.33007 | 26026 ft | 211 kts | 283° |
| 2026-05-03 23:13 | 35.56698 | -92.34779 | 26022 ft | 211 kts | 283° |
| 2026-05-03 23:13 | 35.56963 | -92.36515 | 26018 ft | 211 kts | 283° |
| 2026-05-03 23:13 | 35.57237 | -92.38314 | 26014 ft | 211 kts | 283° |
| 2026-05-03 23:14 | 35.57506 | -92.40083 | 26011 ft | 211 kts | 283° |
| 2026-05-03 23:14 | 35.57772 | -92.41831 | 26009 ft | 211 kts | 283° |
| 2026-05-03 23:14 | 35.58039 | -92.43587 | 26008 ft | 210 kts | 283° |
| 2026-05-03 23:14 | 35.58313 | -92.45385 | 26008 ft | 210 kts | 283° |
| 2026-05-03 23:15 | 35.58579 | -92.47128 | 26005 ft | 210 kts | 283° |
| 2026-05-03 23:15 | 35.58849 | -92.48901 | 26003 ft | 210 kts | 283° |
| 2026-05-03 23:15 | 35.59116 | -92.50676 | 26003 ft | 210 kts | 283° |
| 2026-05-03 23:15 | 35.59380 | -92.52428 | 26002 ft | 210 kts | 283° |
| 2026-05-03 23:16 | 35.59645 | -92.54182 | 26001 ft | 210 kts | 283° |
| 2026-05-03 23:16 | 35.59911 | -92.55951 | 26001 ft | 210 kts | 283° |
| 2026-05-03 23:16 | 35.60173 | -92.57691 | 26000 ft | 210 kts | 283° |
| 2026-05-03 23:16 | 35.60440 | -92.59460 | 26000 ft | 210 kts | 283° |
| 2026-05-03 23:17 | 35.60706 | -92.61227 | 25999 ft | 209 kts | 283° |
| 2026-05-03 23:17 | 35.60970 | -92.62975 | 25999 ft | 209 kts | 283° |
| 2026-05-03 23:17 | 35.61235 | -92.64751 | 25998 ft | 209 kts | 283° |
| 2026-05-03 23:17 | 35.61492 | -92.66477 | 26009 ft | 210 kts | 282° |
| 2026-05-03 23:18 | 35.61760 | -92.68263 | 26011 ft | 210 kts | 282° |
| 2026-05-03 23:18 | 35.62025 | -92.70026 | 26010 ft | 211 kts | 282° |
| 2026-05-03 23:18 | 35.62290 | -92.71791 | 26010 ft | 211 kts | 282° |
| 2026-05-03 23:18 | 35.62554 | -92.73565 | 26010 ft | 211 kts | 282° |
| 2026-05-03 23:19 | 35.62821 | -92.75350 | 26009 ft | 212 kts | 282° |
| 2026-05-03 23:19 | 35.63085 | -92.77125 | 26009 ft | 212 kts | 282° |
| 2026-05-03 23:19 | 35.63353 | -92.78909 | 26009 ft | 212 kts | 282° |
| 2026-05-03 23:19 | 35.63615 | -92.80679 | 26009 ft | 212 kts | 282° |
| 2026-05-03 23:20 | 35.63879 | -92.82466 | 26009 ft | 212 kts | 282° |
| 2026-05-03 23:20 | 35.64144 | -92.84233 | 26009 ft | 212 kts | 282° |
| 2026-05-03 23:20 | 35.64408 | -92.86022 | 26009 ft | 212 kts | 282° |
| 2026-05-03 23:20 | 35.64669 | -92.87785 | 26009 ft | 212 kts | 282° |
| 2026-05-03 23:21 | 35.64935 | -92.89578 | 26009 ft | 212 kts | 282° |
| 2026-05-03 23:21 | 35.65200 | -92.91358 | 26009 ft | 212 kts | 282° |
| 2026-05-03 23:21 | 35.65463 | -92.93143 | 26009 ft | 212 kts | 282° |
| 2026-05-03 23:21 | 35.65727 | -92.94931 | 26008 ft | 212 kts | 282° |
| 2026-05-03 23:22 | 35.66253 | -92.98499 | 26008 ft | 213 kts | 282° |
| 2026-05-03 23:22 | 35.66517 | -93.00288 | 26008 ft | 213 kts | 282° |
| 2026-05-03 23:22 | 35.66780 | -93.02078 | 26008 ft | 213 kts | 282° |
| 2026-05-03 23:23 | 35.67038 | -93.03836 | 26007 ft | 213 kts | 281° |
| 2026-05-03 23:23 | 35.67304 | -93.05656 | 26007 ft | 214 kts | 281° |
| 2026-05-03 23:23 | 35.67567 | -93.07448 | 26007 ft | 214 kts | 281° |
| 2026-05-03 23:23 | 35.67831 | -93.09257 | 26007 ft | 214 kts | 281° |
| 2026-05-03 23:24 | 35.68094 | -93.11062 | 26006 ft | 215 kts | 281° |
| 2026-05-03 23:24 | 35.68356 | -93.12854 | 26006 ft | 215 kts | 281° |
| 2026-05-03 23:24 | 35.68616 | -93.14647 | 26006 ft | 215 kts | 281° |
| 2026-05-03 23:24 | 35.68882 | -93.16486 | 26006 ft | 215 kts | 281° |
| 2026-05-03 23:25 | 35.69143 | -93.18278 | 26006 ft | 215 kts | 281° |
| 2026-05-03 23:25 | 35.69408 | -93.20106 | 26005 ft | 216 kts | 281° |
| 2026-05-03 23:25 | 35.69671 | -93.21921 | 26005 ft | 216 kts | 281° |
| 2026-05-03 23:25 | 35.69935 | -93.23741 | 26005 ft | 216 kts | 281° |
| 2026-05-03 23:26 | 35.70195 | -93.25542 | 26005 ft | 216 kts | 281° |
| 2026-05-03 23:26 | 35.70458 | -93.27357 | 26004 ft | 216 kts | 281° |
| 2026-05-03 23:26 | 35.70720 | -93.29170 | 26004 ft | 216 kts | 281° |
| 2026-05-03 23:26 | 35.70984 | -93.31004 | 26004 ft | 216 kts | 281° |
| 2026-05-03 23:27 | 35.71246 | -93.32816 | 26004 ft | 216 kts | 281° |
| 2026-05-03 23:27 | 35.71504 | -93.34612 | 26003 ft | 215 kts | 281° |
| 2026-05-03 23:27 | 35.71765 | -93.36426 | 26003 ft | 215 kts | 281° |
| 2026-05-03 23:27 | 35.72027 | -93.38248 | 26002 ft | 215 kts | 281° |
| 2026-05-03 23:28 | 35.72288 | -93.40072 | 26002 ft | 215 kts | 281° |
| 2026-05-03 23:28 | 35.72549 | -93.41886 | 26001 ft | 215 kts | 281° |
| 2026-05-03 23:28 | 35.72806 | -93.43681 | 26000 ft | 215 kts | 281° |
| 2026-05-03 23:28 | 35.73065 | -93.45493 | 25999 ft | 215 kts | 281° |
| 2026-05-03 23:29 | 35.73327 | -93.47326 | 25998 ft | 215 kts | 281° |
| 2026-05-03 23:29 | 35.73584 | -93.49129 | 25997 ft | 215 kts | 281° |
| 2026-05-03 23:29 | 35.73845 | -93.50960 | 25996 ft | 215 kts | 281° |
| 2026-05-03 23:29 | 35.74102 | -93.52765 | 25995 ft | 215 kts | 281° |
| 2026-05-03 23:30 | 35.74361 | -93.54582 | 25994 ft | 215 kts | 281° |
| 2026-05-03 23:30 | 35.74620 | -93.56400 | 25993 ft | 215 kts | 281° |
| 2026-05-03 23:30 | 35.74876 | -93.58204 | 25992 ft | 215 kts | 281° |
| 2026-05-03 23:30 | 35.75133 | -93.60024 | 25991 ft | 215 kts | 281° |
| 2026-05-03 23:31 | 35.75389 | -93.61835 | 25991 ft | 215 kts | 281° |
| 2026-05-03 23:31 | 35.75645 | -93.63646 | 25990 ft | 215 kts | 281° |
| 2026-05-03 23:31 | 35.75896 | -93.65421 | 25994 ft | 215 kts | 280° |
| 2026-05-03 23:31 | 35.76153 | -93.67249 | 26002 ft | 215 kts | 280° |
| 2026-05-03 23:32 | 35.76411 | -93.69079 | 26002 ft | 216 kts | 280° |
| 2026-05-03 23:32 | 35.76666 | -93.70885 | 26002 ft | 216 kts | 280° |
| 2026-05-03 23:32 | 35.76925 | -93.72726 | 26002 ft | 216 kts | 280° |
| 2026-05-03 23:32 | 35.77181 | -93.74542 | 26002 ft | 217 kts | 280° |
| 2026-05-03 23:33 | 35.77438 | -93.76373 | 26001 ft | 217 kts | 280° |
| 2026-05-03 23:33 | 35.77692 | -93.78189 | 26001 ft | 217 kts | 280° |
| 2026-05-03 23:33 | 35.77948 | -93.80015 | 26001 ft | 217 kts | 280° |
| 2026-05-03 23:33 | 35.78205 | -93.81857 | 26001 ft | 217 kts | 280° |
| 2026-05-03 23:34 | 35.78461 | -93.83688 | 26000 ft | 217 kts | 280° |
| 2026-05-03 23:34 | 35.78715 | -93.85509 | 26000 ft | 217 kts | 280° |
| 2026-05-03 23:34 | 35.78973 | -93.87360 | 26000 ft | 217 kts | 280° |
| 2026-05-03 23:34 | 35.79228 | -93.89193 | 26000 ft | 217 kts | 280° |
| 2026-05-03 23:35 | 35.79480 | -93.91008 | 25999 ft | 217 kts | 281° |
| 2026-05-03 23:35 | 35.79734 | -93.92834 | 25999 ft | 217 kts | 280° |
| 2026-05-03 23:35 | 35.79989 | -93.94672 | 25999 ft | 217 kts | 280° |
| 2026-05-03 23:35 | 35.80242 | -93.96494 | 25999 ft | 217 kts | 281° |
| 2026-05-03 23:36 | 35.80494 | -93.98318 | 25998 ft | 217 kts | 281° |
| 2026-05-03 23:36 | 35.80749 | -94.00159 | 25998 ft | 217 kts | 281° |
| 2026-05-03 23:36 | 35.81000 | -94.01981 | 25998 ft | 217 kts | 281° |
| 2026-05-03 23:36 | 35.81255 | -94.03829 | 25998 ft | 217 kts | 281° |
| 2026-05-03 23:37 | 35.81505 | -94.05647 | 25998 ft | 217 kts | 281° |
| 2026-05-03 23:37 | 35.81757 | -94.07477 | 25997 ft | 217 kts | 281° |
| 2026-05-03 23:37 | 35.82009 | -94.09309 | 25997 ft | 216 kts | 281° |
| 2026-05-03 23:37 | 35.82261 | -94.11147 | 25997 ft | 216 kts | 281° |
| 2026-05-03 23:38 | 35.82510 | -94.12958 | 25996 ft | 216 kts | 281° |
| 2026-05-03 23:38 | 35.82759 | -94.14778 | 25996 ft | 216 kts | 281° |
| 2026-05-03 23:38 | 35.83012 | -94.16627 | 25996 ft | 216 kts | 281° |
| 2026-05-03 23:38 | 35.83260 | -94.18440 | 25996 ft | 216 kts | 281° |
| 2026-05-03 23:39 | 35.83509 | -94.20270 | 25995 ft | 216 kts | 281° |
| 2026-05-03 23:39 | 35.83758 | -94.22097 | 25995 ft | 216 kts | 281° |
| 2026-05-03 23:39 | 35.84007 | -94.23924 | 25995 ft | 216 kts | 281° |
| 2026-05-03 23:39 | 35.84255 | -94.25751 | 25995 ft | 216 kts | 281° |
| 2026-05-03 23:40 | 35.84499 | -94.27543 | 25995 ft | 216 kts | 281° |
| 2026-05-03 23:40 | 35.84748 | -94.29382 | 25994 ft | 216 kts | 281° |
| 2026-05-03 23:40 | 35.84997 | -94.31214 | 25994 ft | 216 kts | 281° |
| 2026-05-03 23:40 | 35.85243 | -94.33038 | 25994 ft | 216 kts | 281° |
| 2026-05-03 23:41 | 35.85485 | -94.34827 | 25994 ft | 216 kts | 281° |
| 2026-05-03 23:41 | 35.85737 | -94.36695 | 25995 ft | 216 kts | 281° |
| 2026-05-03 23:41 | 35.85981 | -94.38502 | 25995 ft | 216 kts | 281° |
| 2026-05-03 23:41 | 35.86227 | -94.40331 | 25996 ft | 216 kts | 281° |
| 2026-05-03 23:42 | 35.86472 | -94.42146 | 25996 ft | 215 kts | 281° |
| 2026-05-03 23:42 | 35.86716 | -94.43964 | 25997 ft | 215 kts | 281° |
| 2026-05-03 23:42 | 35.86961 | -94.45793 | 25997 ft | 215 kts | 281° |
| 2026-05-03 23:42 | 35.87205 | -94.47606 | 25998 ft | 215 kts | 281° |
| 2026-05-03 23:43 | 35.87448 | -94.49428 | 25998 ft | 215 kts | 281° |
| 2026-05-03 23:43 | 35.87692 | -94.51247 | 25998 ft | 215 kts | 281° |
| 2026-05-03 23:43 | 35.87937 | -94.53082 | 25999 ft | 215 kts | 281° |
| 2026-05-03 23:43 | 35.88177 | -94.54883 | 25999 ft | 215 kts | 281° |
| 2026-05-03 23:44 | 35.88419 | -94.56698 | 26000 ft | 215 kts | 281° |
| 2026-05-03 23:44 | 35.88663 | -94.58534 | 25998 ft | 215 kts | 281° |
| 2026-05-03 23:44 | 35.88903 | -94.60331 | 25997 ft | 215 kts | 281° |
| 2026-05-03 23:44 | 35.89146 | -94.62163 | 25995 ft | 215 kts | 281° |
| 2026-05-03 23:45 | 35.89389 | -94.63990 | 25994 ft | 215 kts | 281° |
| 2026-05-03 23:45 | 35.89629 | -94.65800 | 26000 ft | 215 kts | 280° |
| 2026-05-03 23:45 | 35.89867 | -94.67600 | 26003 ft | 216 kts | 280° |
| 2026-05-03 23:45 | 35.90112 | -94.69460 | 26002 ft | 216 kts | 280° |
| 2026-05-03 23:46 | 35.90353 | -94.71282 | 26001 ft | 217 kts | 280° |
| 2026-05-03 23:46 | 35.90595 | -94.73112 | 26000 ft | 217 kts | 280° |
| 2026-05-03 23:46 | 35.90835 | -94.74940 | 25998 ft | 217 kts | 280° |
| 2026-05-03 23:46 | 35.91079 | -94.76794 | 25997 ft | 217 kts | 280° |
| 2026-05-03 23:47 | 35.91316 | -94.78593 | 25996 ft | 217 kts | 280° |
| 2026-05-03 23:47 | 35.91561 | -94.80462 | 25995 ft | 217 kts | 280° |
| 2026-05-03 23:47 | 35.91800 | -94.82288 | 25995 ft | 217 kts | 280° |
| 2026-05-03 23:47 | 35.92041 | -94.84135 | 25994 ft | 217 kts | 280° |
| 2026-05-03 23:48 | 35.92281 | -94.85970 | 25994 ft | 218 kts | 280° |
| 2026-05-03 23:48 | 35.92524 | -94.87834 | 25994 ft | 218 kts | 280° |
| 2026-05-03 23:48 | 35.92764 | -94.89678 | 25993 ft | 218 kts | 280° |
| 2026-05-03 23:48 | 35.93005 | -94.91522 | 25993 ft | 218 kts | 280° |
| 2026-05-03 23:49 | 35.93243 | -94.93357 | 25992 ft | 219 kts | 280° |
| 2026-05-03 23:49 | 35.93487 | -94.95236 | 25992 ft | 219 kts | 280° |
| 2026-05-03 23:49 | 35.93728 | -94.97090 | 25991 ft | 219 kts | 280° |
| 2026-05-03 23:49 | 35.93966 | -94.98932 | 25991 ft | 220 kts | 280° |
| 2026-05-03 23:50 | 35.94210 | -95.00809 | 25990 ft | 220 kts | 280° |
| 2026-05-03 23:50 | 35.94450 | -95.02670 | 25989 ft | 220 kts | 281° |
| 2026-05-03 23:50 | 35.94690 | -95.04524 | 25988 ft | 221 kts | 281° |
| 2026-05-03 23:50 | 35.94929 | -95.06383 | 25986 ft | 221 kts | 281° |
| 2026-05-03 23:51 | 35.95170 | -95.08247 | 25983 ft | 221 kts | 281° |
| 2026-05-03 23:51 | 35.95414 | -95.10142 | 25980 ft | 221 kts | 281° |
| 2026-05-03 23:51 | 35.95657 | -95.12029 | 25977 ft | 221 kts | 281° |
| 2026-05-03 23:51 | 35.95898 | -95.13906 | 25974 ft | 221 kts | 281° |
| 2026-05-03 23:52 | 35.96137 | -95.15770 | 25971 ft | 221 kts | 281° |
| 2026-05-03 23:52 | 35.96376 | -95.17655 | 25968 ft | 222 kts | 280° |
| 2026-05-03 23:52 | 35.96610 | -95.19516 | 25965 ft | 222 kts | 281° |
| 2026-05-03 23:52 | 35.96854 | -95.21410 | 25961 ft | 222 kts | 281° |
| 2026-05-03 23:53 | 35.97094 | -95.23280 | 25957 ft | 222 kts | 281° |
| 2026-05-03 23:53 | 35.97335 | -95.25167 | 25954 ft | 222 kts | 281° |
| 2026-05-03 23:53 | 35.97572 | -95.27026 | 25950 ft | 222 kts | 281° |
| 2026-05-03 23:53 | 35.97812 | -95.28915 | 25946 ft | 222 kts | 281° |
| 2026-05-03 23:54 | 35.98049 | -95.30783 | 25945 ft | 221 kts | 281° |
| 2026-05-03 23:54 | 35.98288 | -95.32667 | 25944 ft | 221 kts | 281° |
| 2026-05-03 23:54 | 35.98527 | -95.34557 | 25943 ft | 221 kts | 281° |
| 2026-05-03 23:54 | 35.98761 | -95.36416 | 25942 ft | 221 kts | 281° |
| 2026-05-03 23:55 | 35.98995 | -95.38268 | 25941 ft | 221 kts | 281° |
| 2026-05-03 23:55 | 35.99235 | -95.40168 | 25940 ft | 221 kts | 281° |
| 2026-05-03 23:55 | 35.99471 | -95.42049 | 25939 ft | 221 kts | 281° |
| 2026-05-03 23:55 | 35.99706 | -95.43914 | 25939 ft | 221 kts | 281° |
| 2026-05-03 23:56 | 35.99941 | -95.45789 | 25938 ft | 221 kts | 281° |
| 2026-05-03 23:56 | 36.00177 | -95.47670 | 25937 ft | 221 kts | 281° |
| 2026-05-03 23:56 | 36.00411 | -95.49537 | 25937 ft | 221 kts | 281° |
| 2026-05-03 23:56 | 36.00643 | -95.51398 | 25936 ft | 221 kts | 281° |
| 2026-05-03 23:57 | 36.00879 | -95.53285 | 25936 ft | 221 kts | 281° |
| 2026-05-03 23:57 | 36.01112 | -95.55155 | 25936 ft | 221 kts | 281° |
| 2026-05-03 23:57 | 36.01342 | -95.57003 | 25936 ft | 220 kts | 281° |
| 2026-05-03 23:57 | 36.01576 | -95.58881 | 25936 ft | 220 kts | 281° |
| 2026-05-03 23:58 | 36.01810 | -95.60767 | 25935 ft | 220 kts | 281° |
| 2026-05-03 23:58 | 36.02040 | -95.62620 | 25935 ft | 220 kts | 281° |
| 2026-05-03 23:58 | 36.02271 | -95.64481 | 25935 ft | 220 kts | 281° |
| 2026-05-03 23:58 | 36.02501 | -95.66351 | 25944 ft | 220 kts | 280° |
| 2026-05-03 23:59 | 36.02734 | -95.68234 | 25946 ft | 221 kts | 280° |
| 2026-05-03 23:59 | 36.02964 | -95.70094 | 25946 ft | 221 kts | 280° |
| 2026-05-03 23:59 | 36.03196 | -95.71968 | 25946 ft | 222 kts | 280° |
| 2026-05-03 23:59 | 36.03428 | -95.73852 | 25945 ft | 222 kts | 280° |
| 2026-05-04 00:00 | 36.03660 | -95.75745 | 25945 ft | 222 kts | 280° |
| 2026-05-04 00:00 | 36.03894 | -95.77647 | 25945 ft | 222 kts | 280° |
| 2026-05-04 00:00 | 36.04127 | -95.79534 | 25945 ft | 222 kts | 280° |
| 2026-05-04 00:00 | 36.04356 | -95.81412 | 25944 ft | 222 kts | 280° |
| 2026-05-04 00:01 | 36.04587 | -95.83306 | 25944 ft | 222 kts | 280° |
| 2026-05-04 00:01 | 36.04817 | -95.85188 | 25944 ft | 222 kts | 280° |
| 2026-05-04 00:01 | 36.05048 | -95.87086 | 25944 ft | 222 kts | 280° |
| 2026-05-04 00:01 | 36.05277 | -95.88966 | 25943 ft | 222 kts | 280° |
| 2026-05-04 00:02 | 36.05504 | -95.90832 | 25943 ft | 222 kts | 280° |
| 2026-05-04 00:02 | 36.05737 | -95.92751 | 25943 ft | 222 kts | 280° |
| 2026-05-04 00:02 | 36.05966 | -95.94642 | 25943 ft | 222 kts | 280° |
| 2026-05-04 00:02 | 36.06194 | -95.96526 | 25943 ft | 222 kts | 280° |
| 2026-05-04 00:03 | 36.06418 | -95.98380 | 25942 ft | 222 kts | 280° |
| 2026-05-04 00:03 | 36.06648 | -96.00280 | 25942 ft | 222 kts | 280° |
| 2026-05-04 00:03 | 36.06878 | -96.02184 | 25942 ft | 222 kts | 280° |
| 2026-05-04 00:03 | 36.07105 | -96.04071 | 25942 ft | 222 kts | 280° |
| 2026-05-04 00:04 | 36.07330 | -96.05939 | 25941 ft | 222 kts | 280° |
| 2026-05-04 00:04 | 36.07559 | -96.07850 | 25941 ft | 222 kts | 280° |
| 2026-05-04 00:04 | 36.07781 | -96.09701 | 25941 ft | 222 kts | 280° |
| 2026-05-04 00:04 | 36.08011 | -96.11620 | 25941 ft | 222 kts | 280° |
| 2026-05-04 00:05 | 36.08234 | -96.13488 | 25940 ft | 222 kts | 280° |
| 2026-05-04 00:05 | 36.08460 | -96.15373 | 25940 ft | 222 kts | 280° |
| 2026-05-04 00:05 | 36.08685 | -96.17265 | 25940 ft | 222 kts | 280° |
| 2026-05-04 00:05 | 36.08912 | -96.19168 | 25940 ft | 222 kts | 280° |
| 2026-05-04 00:06 | 36.09134 | -96.21033 | 25940 ft | 222 kts | 280° |
| 2026-05-04 00:06 | 36.09359 | -96.22927 | 25939 ft | 222 kts | 280° |
| 2026-05-04 00:06 | 36.09579 | -96.24780 | 25939 ft | 222 kts | 280° |
| 2026-05-04 00:06 | 36.09807 | -96.26702 | 25940 ft | 221 kts | 280° |
| 2026-05-04 00:07 | 36.10027 | -96.28559 | 25941 ft | 221 kts | 280° |
| 2026-05-04 00:07 | 36.10248 | -96.30432 | 25945 ft | 221 kts | 280° |
| 2026-05-04 00:07 | 36.10471 | -96.32317 | 25945 ft | 222 kts | 280° |
| 2026-05-04 00:07 | 36.10693 | -96.34209 | 25946 ft | 222 kts | 280° |
| 2026-05-04 00:08 | 36.10914 | -96.36083 | 25946 ft | 222 kts | 280° |
| 2026-05-04 00:08 | 36.11137 | -96.37981 | 25947 ft | 222 kts | 280° |
| 2026-05-04 00:08 | 36.11356 | -96.39848 | 25947 ft | 222 kts | 280° |
| 2026-05-04 00:08 | 36.11578 | -96.41737 | 25948 ft | 222 kts | 280° |
| 2026-05-04 00:09 | 36.11800 | -96.43639 | 25948 ft | 222 kts | 280° |
| 2026-05-04 00:09 | 36.12020 | -96.45523 | 25949 ft | 222 kts | 280° |
| 2026-05-04 00:09 | 36.12238 | -96.47388 | 25949 ft | 222 kts | 280° |
| 2026-05-04 00:09 | 36.12460 | -96.49292 | 25950 ft | 222 kts | 280° |
| 2026-05-04 00:10 | 36.12678 | -96.51170 | 25950 ft | 222 kts | 280° |
| 2026-05-04 00:10 | 36.12899 | -96.53065 | 25949 ft | 222 kts | 280° |
| 2026-05-04 00:10 | 36.13116 | -96.54936 | 25949 ft | 222 kts | 280° |
| 2026-05-04 00:10 | 36.13336 | -96.56834 | 25949 ft | 221 kts | 280° |
| 2026-05-04 00:11 | 36.13554 | -96.58724 | 25949 ft | 221 kts | 280° |
| 2026-05-04 00:11 | 36.13771 | -96.60600 | 25948 ft | 221 kts | 280° |
| 2026-05-04 00:11 | 36.13987 | -96.62471 | 25948 ft | 221 kts | 280° |
| 2026-05-04 00:11 | 36.14204 | -96.64352 | 25948 ft | 221 kts | 280° |
| 2026-05-04 00:12 | 36.14418 | -96.66219 | 25957 ft | 221 kts | 279° |
| 2026-05-04 00:12 | 36.14637 | -96.68127 | 25959 ft | 222 kts | 279° |
| 2026-05-04 00:12 | 36.14855 | -96.70021 | 25959 ft | 222 kts | 279° |
| 2026-05-04 00:12 | 36.15073 | -96.71925 | 25959 ft | 223 kts | 279° |
| 2026-05-04 00:13 | 36.15291 | -96.73827 | 25958 ft | 223 kts | 279° |
| 2026-05-04 00:13 | 36.15508 | -96.75725 | 25956 ft | 223 kts | 279° |
| 2026-05-04 00:13 | 36.15723 | -96.77608 | 25954 ft | 223 kts | 279° |
| 2026-05-04 00:13 | 36.15940 | -96.79516 | 25953 ft | 223 kts | 279° |
| 2026-05-04 00:14 | 36.16159 | -96.81436 | 25951 ft | 224 kts | 279° |
| 2026-05-04 00:14 | 36.16373 | -96.83323 | 25949 ft | 224 kts | 279° |
| 2026-05-04 00:14 | 36.16591 | -96.85241 | 25948 ft | 224 kts | 279° |
| 2026-05-04 00:14 | 36.16807 | -96.87148 | 25946 ft | 224 kts | 279° |
| 2026-05-04 00:15 | 36.17022 | -96.89051 | 25944 ft | 224 kts | 279° |
| 2026-05-04 00:15 | 36.17236 | -96.90939 | 25942 ft | 224 kts | 279° |
| 2026-05-04 00:15 | 36.17450 | -96.92828 | 25934 ft | 224 kts | 279° |
| 2026-05-04 00:15 | 36.17667 | -96.94759 | 25931 ft | 224 kts | 279° |
| 2026-05-04 00:16 | 36.17881 | -96.96663 | 25929 ft | 224 kts | 279° |
| 2026-05-04 00:16 | 36.18095 | -96.98570 | 25928 ft | 224 kts | 279° |
| 2026-05-04 00:16 | 36.18309 | -97.00459 | 25927 ft | 224 kts | 279° |
| 2026-05-04 00:16 | 36.18525 | -97.02389 | 25927 ft | 224 kts | 279° |
| 2026-05-04 00:17 | 36.18738 | -97.04291 | 25927 ft | 224 kts | 279° |
| 2026-05-04 00:17 | 36.18952 | -97.06207 | 25927 ft | 225 kts | 279° |
| 2026-05-04 00:17 | 36.19164 | -97.08110 | 25926 ft | 225 kts | 278° |
| 2026-05-04 00:17 | 36.19382 | -97.10066 | 25926 ft | 226 kts | 278° |
| 2026-05-04 00:18 | 36.19595 | -97.11977 | 25926 ft | 226 kts | 278° |
| 2026-05-04 00:18 | 36.19810 | -97.13918 | 25926 ft | 227 kts | 278° |
| 2026-05-04 00:18 | 36.20021 | -97.15823 | 25925 ft | 227 kts | 278° |
| 2026-05-04 00:18 | 36.20238 | -97.17790 | 25925 ft | 228 kts | 278° |
| 2026-05-04 00:19 | 36.20451 | -97.19717 | 25925 ft | 228 kts | 278° |
| 2026-05-04 00:19 | 36.20666 | -97.21667 | 25925 ft | 229 kts | 278° |
| 2026-05-04 00:19 | 36.20882 | -97.23639 | 25924 ft | 229 kts | 278° |
| 2026-05-04 00:19 | 36.21096 | -97.25598 | 25924 ft | 230 kts | 278° |
| 2026-05-04 00:20 | 36.21311 | -97.27558 | 25923 ft | 230 kts | 278° |
| 2026-05-04 00:20 | 36.21526 | -97.29516 | 25923 ft | 230 kts | 278° |
| 2026-05-04 00:20 | 36.21739 | -97.31471 | 25922 ft | 230 kts | 278° |
| 2026-05-04 00:20 | 36.21953 | -97.33430 | 25921 ft | 230 kts | 278° |
| 2026-05-04 00:21 | 36.22169 | -97.35414 | 25921 ft | 230 kts | 278° |
| 2026-05-04 00:21 | 36.22383 | -97.37370 | 25920 ft | 230 kts | 278° |
| 2026-05-04 00:21 | 36.22598 | -97.39352 | 25919 ft | 230 kts | 278° |
| 2026-05-04 00:21 | 36.22812 | -97.41318 | 25918 ft | 230 kts | 278° |
| 2026-05-04 00:22 | 36.23023 | -97.43263 | 25916 ft | 230 kts | 278° |
| 2026-05-04 00:22 | 36.23238 | -97.45248 | 25915 ft | 231 kts | 278° |
| 2026-05-04 00:22 | 36.23450 | -97.47208 | 25913 ft | 231 kts | 278° |
| 2026-05-04 00:22 | 36.23662 | -97.49178 | 25911 ft | 231 kts | 278° |
| 2026-05-04 00:23 | 36.23872 | -97.51132 | 25908 ft | 231 kts | 278° |
| 2026-05-04 00:23 | 36.24087 | -97.53128 | 25906 ft | 231 kts | 278° |
| 2026-05-04 00:23 | 36.24298 | -97.55085 | 25904 ft | 230 kts | 278° |
| 2026-05-04 00:23 | 36.24509 | -97.57060 | 25902 ft | 230 kts | 278° |
| 2026-05-04 00:24 | 36.24720 | -97.59023 | 25901 ft | 230 kts | 278° |
| 2026-05-04 00:24 | 36.24930 | -97.60992 | 25899 ft | 230 kts | 278° |
| 2026-05-04 00:24 | 36.25139 | -97.62949 | 25897 ft | 230 kts | 278° |
| 2026-05-04 00:24 | 36.25349 | -97.64920 | 25896 ft | 230 kts | 278° |
| 2026-05-04 00:25 | 36.25555 | -97.66867 | 25856 ft | 233 kts | 277° |
| 2026-05-04 00:25 | 36.25770 | -97.68886 | 25611 ft | 241 kts | 277° |
| 2026-05-04 00:25 | 36.25995 | -97.70988 | 25367 ft | 247 kts | 277° |
| 2026-05-04 00:25 | 36.26221 | -97.73116 | 25124 ft | 251 kts | 277° |
| 2026-05-04 00:26 | 36.26448 | -97.75265 | 24882 ft | 255 kts | 277° |
| 2026-05-04 00:26 | 36.26680 | -97.77454 | 24636 ft | 257 kts | 277° |
| 2026-05-04 00:26 | 36.26909 | -97.79632 | 24393 ft | 258 kts | 277° |
| 2026-05-04 00:26 | 36.27143 | -97.81857 | 24145 ft | 260 kts | 277° |
| 2026-05-04 00:27 | 36.27375 | -97.84068 | 23900 ft | 260 kts | 277° |
| 2026-05-04 00:27 | 36.27611 | -97.86314 | 23651 ft | 261 kts | 277° |
| 2026-05-04 00:27 | 36.27843 | -97.88541 | 23404 ft | 262 kts | 277° |
| 2026-05-04 00:27 | 36.28075 | -97.90758 | 23158 ft | 261 kts | 277° |
| 2026-05-04 00:28 | 36.28307 | -97.92979 | 22908 ft | 259 kts | 277° |
| 2026-05-04 00:28 | 36.28538 | -97.95206 | 22657 ft | 258 kts | 277° |
| 2026-05-04 00:28 | 36.28766 | -97.97399 | 22408 ft | 257 kts | 277° |
| 2026-05-04 00:28 | 36.28994 | -97.99599 | 22158 ft | 256 kts | 277° |
| 2026-05-04 00:29 | 36.29218 | -98.01771 | 21909 ft | 256 kts | 277° |
| 2026-05-04 00:29 | 36.29445 | -98.03975 | 21657 ft | 256 kts | 277° |
| 2026-05-04 00:29 | 36.29670 | -98.06150 | 21408 ft | 256 kts | 277° |
| 2026-05-04 00:29 | 36.29893 | -98.08326 | 21157 ft | 255 kts | 277° |
| 2026-05-04 00:30 | 36.30115 | -98.10490 | 20908 ft | 255 kts | 277° |
| 2026-05-04 00:30 | 36.30342 | -98.12699 | 20654 ft | 255 kts | 277° |
| 2026-05-04 00:30 | 36.30562 | -98.14846 | 20406 ft | 255 kts | 277° |
| 2026-05-04 00:30 | 36.30787 | -98.17052 | 20151 ft | 255 kts | 276° |
| 2026-05-04 00:31 | 36.31009 | -98.19227 | 19899 ft | 255 kts | 276° |
| 2026-05-04 00:31 | 36.31230 | -98.21407 | 19647 ft | 255 kts | 276° |
| 2026-05-04 00:31 | 36.31452 | -98.23596 | 19393 ft | 255 kts | 276° |
| 2026-05-04 00:31 | 36.31673 | -98.25781 | 19139 ft | 255 kts | 276° |
| 2026-05-04 00:32 | 36.31895 | -98.27972 | 18885 ft | 255 kts | 276° |
| 2026-05-04 00:32 | 36.32114 | -98.30151 | 18631 ft | 255 kts | 276° |
| 2026-05-04 00:32 | 36.32332 | -98.32311 | 18380 ft | 255 kts | 276° |
| 2026-05-04 00:32 | 36.32553 | -98.34508 | 18124 ft | 255 kts | 276° |
| 2026-05-04 00:33 | 36.32771 | -98.36682 | 17871 ft | 255 kts | 276° |
| 2026-05-04 00:33 | 36.33208 | -98.41045 | 17362 ft | 255 kts | 276° |
| 2026-05-04 00:33 | 36.33425 | -98.43223 | 17107 ft | 255 kts | 276° |
| 2026-05-04 00:34 | 36.33642 | -98.45400 | 16852 ft | 255 kts | 276° |
| 2026-05-04 00:34 | 36.33861 | -98.47600 | 16595 ft | 255 kts | 276° |
| 2026-05-04 00:34 | 36.34077 | -98.49776 | 16340 ft | 255 kts | 276° |
| 2026-05-04 00:34 | 36.34294 | -98.51962 | 16084 ft | 255 kts | 276° |
| 2026-05-04 00:35 | 36.34507 | -98.54123 | 15831 ft | 255 kts | 276° |
| 2026-05-04 00:35 | 36.34727 | -98.56347 | 15570 ft | 255 kts | 276° |
| 2026-05-04 00:35 | 36.34939 | -98.58498 | 15317 ft | 254 kts | 276° |
| 2026-05-04 00:35 | 36.35154 | -98.60686 | 15058 ft | 253 kts | 276° |
| 2026-05-04 00:36 | 36.35368 | -98.62860 | 14801 ft | 253 kts | 276° |
| 2026-05-04 00:36 | 36.35580 | -98.65027 | 14544 ft | 253 kts | 276° |
| 2026-05-04 00:36 | 36.35789 | -98.67174 | 14299 ft | 253 kts | 276° |
| 2026-05-04 00:36 | 36.36000 | -98.69331 | 14053 ft | 253 kts | 276° |
| 2026-05-04 00:37 | 36.36210 | -98.71490 | 13806 ft | 253 kts | 276° |
| 2026-05-04 00:37 | 36.36420 | -98.73644 | 13559 ft | 253 kts | 276° |
| 2026-05-04 00:37 | 36.36629 | -98.75804 | 13311 ft | 252 kts | 276° |
| 2026-05-04 00:37 | 36.36839 | -98.77972 | 13062 ft | 252 kts | 276° |
| 2026-05-04 00:38 | 36.37048 | -98.80132 | 12813 ft | 252 kts | 275° |
| 2026-05-04 00:38 | 36.37257 | -98.82295 | 12565 ft | 252 kts | 275° |
| 2026-05-04 00:38 | 36.37466 | -98.84470 | 12314 ft | 252 kts | 275° |
| 2026-05-04 00:38 | 36.37674 | -98.86629 | 12065 ft | 252 kts | 275° |
| 2026-05-04 00:39 | 36.37880 | -98.88779 | 11817 ft | 252 kts | 275° |
| 2026-05-04 00:39 | 36.38089 | -98.90953 | 11566 ft | 252 kts | 275° |
| 2026-05-04 00:39 | 36.38294 | -98.93070 | 11322 ft | 252 kts | 275° |
| 2026-05-04 00:39 | 36.38503 | -98.95248 | 11069 ft | 252 kts | 275° |
| 2026-05-04 00:40 | 36.38710 | -98.97411 | 10819 ft | 252 kts | 275° |
| 2026-05-04 00:40 | 36.38914 | -98.99568 | 10569 ft | 252 kts | 275° |
| 2026-05-04 00:40 | 36.39120 | -99.01734 | 10318 ft | 252 kts | 275° |
| 2026-05-04 00:40 | 36.39323 | -99.03880 | 10068 ft | 252 kts | 275° |
| 2026-05-04 00:41 | 36.39527 | -99.06033 | 9818 ft | 252 kts | 275° |
| 2026-05-04 00:41 | 36.39732 | -99.08216 | 9563 ft | 252 kts | 274° |
| 2026-05-04 00:41 | 36.39936 | -99.10369 | 9249 ft | 250 kts | 274° |
| 2026-05-04 00:41 | 36.40135 | -99.12504 | 8922 ft | 248 kts | 274° |
| 2026-05-04 00:42 | 36.40331 | -99.14585 | 8601 ft | 247 kts | 274° |
| 2026-05-04 00:42 | 36.40530 | -99.16720 | 8271 ft | 246 kts | 274° |
| 2026-05-04 00:42 | 36.40723 | -99.18802 | 7942 ft | 245 kts | 274° |
| 2026-05-04 00:42 | 36.40921 | -99.20926 | 7608 ft | 245 kts | 274° |
| 2026-05-04 00:43 | 36.41117 | -99.23015 | 7280 ft | 246 kts | 274° |
| 2026-05-04 00:43 | 36.41318 | -99.25147 | 6946 ft | 245 kts | 274° |
| 2026-05-04 00:43 | 36.41510 | -99.27236 | 6628 ft | 245 kts | 273° |
| 2026-05-04 00:43 | 36.41694 | -99.29345 | 6301 ft | 245 kts | 273° |
| 2026-05-04 00:44 | 36.41901 | -99.31428 | 5966 ft | 245 kts | 273° |
| 2026-05-04 00:44 | 36.42089 | -99.33534 | 5642 ft | 245 kts | 272° |
| 2026-05-04 00:44 | 36.42283 | -99.35632 | 5315 ft | 245 kts | 273° |
| 2026-05-04 00:44 | 36.42472 | -99.37731 | 4988 ft | 245 kts | 274° |
| 2026-05-04 00:45 | 36.42672 | -99.39828 | 4675 ft | 245 kts | 272° |
| 2026-05-04 00:45 | 36.42860 | -99.41901 | 4341 ft | 237 kts | 273° |
| 2026-05-04 00:45 | 36.43047 | -99.43909 | 3977 ft | 226 kts | 272° |
| 2026-05-04 00:45 | 36.43222 | -99.45802 | 3472 ft | 220 kts | 271° |
| 2026-05-04 00:46 | 36.43387 | -99.47643 | 3222 ft | 205 kts | 272° |
| 2026-05-04 00:46 | 36.43553 | -99.49348 | 3129 ft | 193 kts | 273° |
| 2026-05-04 00:46 | 36.44212 | -99.50669 | 3068 ft | 190 kts | 328° |
| 2026-05-04 00:46 | 36.45468 | -99.50849 | 2797 ft | 172 kts | 1° |
| 2026-05-04 00:47 | 36.46415 | -99.50977 | 2913 ft | 109 kts | 317° |
| 2026-05-04 00:47 | 36.46717 | -99.51772 | 2715 ft | 105 kts | 247° |
| 2026-05-04 00:47 | 36.46184 | -99.52188 | 2564 ft | 97 kts | 172° |
| 2026-05-04 00:47 | 36.45570 | -99.52059 | 2453 ft | 87 kts | 183° |
| 2026-05-04 00:48 | 36.44956 | -99.52080 | 2312 ft | 88 kts | 184° |
| 2026-05-04 00:48 | 36.44364 | -99.52093 | 2205 ft | 79 kts | 183° |
| 2026-05-04 00:48 | 36.43956 | -99.52099 | 2192 ft | 36 kts | 182° |
| 2026-05-04 00:48 | 36.43756 | -99.52106 | 2192 ft | 26 kts | 177° |
| 2026-05-04 00:49 | 36.43663 | -99.52068 | 2192 ft | 4 kts | 107° |
| 2026-05-04 00:49 | 36.43660 | -99.52009 | 2191 ft | 0 kts | 93° |
| 2026-05-04 00:49 | 36.43660 | -99.51907 | 2185 ft | 22 kts | 92° |
| 2026-05-04 00:50 | 36.43563 | -99.51857 | 2183 ft | 8 kts | 258° |
| 2026-05-04 00:50 | 36.43563 | -99.51865 | 2184 ft | 0 kts | 272° |